Time;durP1;ratioP1;P1;durP2;ratioP2;P2;SDS_P1;SDS_P2;PMS_P1;PMS_P2;Temp;Humidity;BMP_temperature;BMP_pressure;BME280_temperature;BME280_humidity;BME280_pressure;Samples;Min_cycle;Max_cycle;Signal;HPM_P1;HPM_P2
2022/07/10 00:00:00;;;;;;;2.22;1.30;;;23.20;58.40;;;;;;6074402;23;88141;-86
2022/07/10 00:02:26;;;;;;;2.25;1.20;;;23.10;58.50;;;;;;6075893;23;89713;-86
2022/07/10 00:04:52;;;;;;;1.95;1.10;;;23.10;58.70;;;;;;6099414;23;90015;-86
2022/07/10 00:07:17;;;;;;;3.10;1.38;;;23.10;58.50;;;;;;6102224;23;87172;-86
2022/07/10 00:10:00;;;;;;;1.67;1.08;;;23.10;58.60;;;;;;6075817;23;86918;-87
2022/07/10 00:12:26;;;;;;;1.80;1.05;;;23.10;58.60;;;;;;6074944;23;88247;-86
2022/07/10 00:14:52;;;;;;;1.65;1.10;;;23.10;58.50;;;;;;6100220;23;89546;-87
2022/07/10 00:17:17;;;;;;;3.13;1.23;;;23.10;58.50;;;;;;6102118;23;87770;-86
2022/07/10 00:19:43;;;;;;;1.98;1.17;;;23.10;58.40;;;;;;6102918;23;86901;-86
2022/07/10 00:22:09;;;;;;;2.75;1.30;;;23.10;58.40;;;;;;6102300;23;87273;-86
2022/07/10 00:24:35;;;;;;;1.90;1.15;;;23.10;58.50;;;;;;6074929;23;91068;-86
2022/07/10 00:27:00;;;;;;;2.42;1.40;;;23.10;58.50;;;;;;6102651;23;87312;-87
2022/07/10 00:29:26;;;;;;;1.52;1.00;;;23.10;58.50;;;;;;6101966;23;86853;-86
2022/07/10 00:31:51;;;;;;;1.25;1.10;;;23.10;58.70;;;;;;6102244;23;86850;-84
2022/07/10 00:34:17;;;;;;;2.35;1.30;;;23.10;58.60;;;;;;6102165;23;88062;-86
2022/07/10 00:36:43;;;;;;;2.63;1.20;;;23.10;58.50;;;;;;6074050;23;88916;-86
2022/07/10 00:39:09;;;;;;;2.40;1.38;;;23.10;58.50;;;;;;6101177;23;86826;-86
2022/07/10 00:41:35;;;;;;;1.33;1.20;;;23.10;58.60;;;;;;6101685;23;86349;-86
2022/07/10 00:44:02;;;;;;;2.50;1.10;;;23.10;58.50;;;;;;6074559;23;89772;-86
2022/07/10 00:46:39;;;;;;;;;;;;;;;;;;;;;
2022/07/10 00:49:05;;;;;;;2.08;1.30;;;23.00;58.50;;;;;;6100595;23;88219;-86
2022/07/10 00:51:31;;;;;;;2.20;1.30;;;23.10;58.50;;;;;;6100015;23;89172;-86
2022/07/10 00:53:57;;;;;;;1.95;1.30;;;23.10;58.60;;;;;;6075252;23;89371;-86
2022/07/10 00:56:25;;;;;;;1.98;1.38;;;23.10;58.60;;;;;;6074604;23;89965;-85
2022/07/10 00:58:51;;;;;;;2.22;1.20;;;23.00;58.50;;;;;;6075474;23;87813;-85
2022/07/10 01:01:17;;;;;;;1.73;1.25;;;23.00;58.70;;;;;;6075073;23;89403;-86
2022/07/10 01:03:45;;;;;;;2.35;1.48;;;23.00;58.60;;;;;;6075384;23;90706;-86
2022/07/10 01:06:11;;;;;;;1.48;1.20;;;23.00;59.30;;;;;;6074669;23;89592;-85
2022/07/10 01:08:37;;;;;;;1.17;1.08;;;23.00;58.70;;;;;;6074811;23;86871;-87
2022/07/10 01:11:04;;;;;;;3.75;1.40;;;23.00;58.70;;;;;;6100678;23;87019;-87
2022/07/10 01:13:29;;;;;;;1.80;1.10;;;23.00;58.60;;;;;;6073730;23;90481;-86
2022/07/10 01:15:55;;;;;;;1.58;1.10;;;23.00;58.60;;;;;;6101046;23;88649;-86
2022/07/10 01:18:21;;;;;;;2.03;1.30;;;23.00;58.60;;;;;;6101666;23;87317;-85
2022/07/10 01:20:51;;;;;;;2.90;1.15;;;23.00;58.70;;;;;;6101581;23;86945;-87
2022/07/10 01:23:17;;;;;;;1.58;1.15;;;23.00;58.70;;;;;;6075094;23;88988;-86
2022/07/10 01:25:45;;;;;;;3.72;1.48;;;23.00;58.50;;;;;;6074890;23;90009;-86
2022/07/10 01:28:10;;;;;;;1.77;1.30;;;23.00;58.70;;;;;;6074880;23;86849;-85
2022/07/10 01:30:36;;;;;;;1.38;1.13;;;23.00;58.60;;;;;;6101263;23;89456;-87
2022/07/10 01:33:02;;;;;;;2.53;1.05;;;23.00;58.60;;;;;;6074991;23;90445;-87
2022/07/10 01:35:28;;;;;;;1.48;1.00;;;23.00;58.60;;;;;;6074844;23;90187;-87
2022/07/10 01:37:53;;;;;;;1.60;1.10;;;23.00;58.60;;;;;;6099149;23;87880;-86
2022/07/10 01:40:19;;;;;;;1.08;0.90;;;23.00;58.50;;;;;;6099106;23;88658;-86
2022/07/10 01:42:45;;;;;;;1.00;0.80;;;23.00;58.60;;;;;;6100517;23;87926;-87
2022/07/10 01:45:11;;;;;;;1.30;1.17;;;23.00;58.60;;;;;;6101388;23;87710;-87
2022/07/10 01:47:37;;;;;;;1.73;1.23;;;23.00;58.70;;;;;;6099443;23;86816;-86
2022/07/10 01:50:04;;;;;;;1.38;1.10;;;23.00;58.50;;;;;;6100693;23;89222;-86
2022/07/10 01:52:29;;;;;;;1.13;0.90;;;23.00;58.60;;;;;;6100816;23;87914;-86
2022/07/10 01:54:56;;;;;;;2.00;1.20;;;23.00;58.50;;;;;;6101802;23;87441;-86
2022/07/10 01:57:21;;;;;;;1.55;0.90;;;23.00;58.50;;;;;;6075981;23;86948;-86
2022/07/10 01:59:47;;;;;;;1.88;1.20;;;23.00;58.70;;;;;;6100114;23;89361;-86
2022/07/10 02:02:13;;;;;;;2.28;1.20;;;23.00;58.70;;;;;;6100503;23;89025;-85
2022/07/10 02:04:41;;;;;;;1.10;1.00;;;22.90;58.70;;;;;;6102420;23;87700;-86
2022/07/10 02:07:12;;;;;;;1.33;1.23;;;23.00;58.80;;;;;;6076265;23;86900;-87
2022/07/10 02:09:43;;;;;;;1.92;1.00;;;22.90;58.60;;;;;;6103296;23;86799;-85
2022/07/10 02:12:13;;;;;;;1.67;1.25;;;23.00;58.70;;;;;;6075602;23;90646;-86
2022/07/10 02:14:39;;;;;;;1.83;1.15;;;22.90;58.70;;;;;;6076859;23;90389;-85
2022/07/10 02:17:06;;;;;;;1.17;1.00;;;22.90;58.60;;;;;;6075422;23;86980;-86
2022/07/10 02:19:32;;;;;;;1.42;0.95;;;22.90;58.50;;;;;;6075389;23;89530;-86
2022/07/10 02:21:58;;;;;;;1.40;1.10;;;22.90;58.60;;;;;;6103596;23;88095;-86
2022/07/10 02:24:24;;;;;;;1.52;0.98;;;23.00;58.80;;;;;;6075438;23;90288;-86
2022/07/10 02:26:50;;;;;;;1.27;1.08;;;22.90;58.60;;;;;;6102448;23;87855;-86
2022/07/10 02:29:15;;;;;;;1.52;1.38;;;22.90;58.60;;;;;;6102787;23;86832;-86
2022/07/10 02:31:41;;;;;;;1.48;1.20;;;22.90;58.60;;;;;;6100146;23;89936;-86
2022/07/10 02:34:08;;;;;;;1.52;1.10;;;22.90;58.50;;;;;;6075229;23;90104;-87
2022/07/10 02:36:35;;;;;;;1.60;1.13;;;22.90;58.50;;;;;;6076397;23;86974;-86
2022/07/10 02:39:00;;;;;;;1.77;1.20;;;22.90;58.60;;;;;;6075991;23;88876;-86
2022/07/10 02:41:26;;;;;;;1.55;1.00;;;22.90;59.10;;;;;;6101927;23;88030;-86
2022/07/10 02:43:52;;;;;;;1.60;1.05;;;22.90;58.50;;;;;;6102258;23;87089;-86
2022/07/10 02:46:18;;;;;;;0.80;0.80;;;22.90;58.60;;;;;;6076769;23;86928;-85
2022/07/10 02:48:43;;;;;;;1.92;1.13;;;22.90;58.60;;;;;;6101931;23;87169;-86
2022/07/10 02:51:09;;;;;;;1.60;1.10;;;22.90;58.60;;;;;;6075625;23;91012;-86
2022/07/10 02:53:34;;;;;;;2.80;1.10;;;22.90;58.60;;;;;;6076296;23;91092;-87
2022/07/10 02:56:00;;;;;;;1.20;1.10;;;22.90;58.40;;;;;;6102649;23;87361;-86
2022/07/10 02:58:25;;;;;;;1.20;1.02;;;22.90;58.40;;;;;;6102273;23;86837;-86
2022/07/10 03:00:51;;;;;;;1.13;1.02;;;22.90;58.40;;;;;;6075987;23;88942;-86
2022/07/10 03:03:17;;;;;;;1.27;0.90;;;22.90;58.50;;;;;;6103034;23;87670;-86
2022/07/10 03:05:45;;;;;;;1.27;1.02;;;22.90;58.60;;;;;;6100851;23;86825;-84
2022/07/10 03:08:11;;;;;;;1.73;1.10;;;22.90;58.50;;;;;;6101415;23;86774;-86
2022/07/10 03:10:38;;;;;;;1.50;1.00;;;22.80;58.50;;;;;;6100790;23;87745;-87
2022/07/10 03:13:03;;;;;;;1.17;1.00;;;22.80;58.30;;;;;;6074993;23;90321;-86
2022/07/10 03:15:29;;;;;;;1.50;1.02;;;22.90;58.50;;;;;;6100976;23;87949;-85
2022/07/10 03:17:55;;;;;;;1.00;0.90;;;22.90;59.00;;;;;;6102029;23;86909;-87
2022/07/10 03:20:20;;;;;;;0.98;0.93;;;22.80;58.40;;;;;;6102309;23;87617;-86
2022/07/10 03:22:46;;;;;;;1.95;1.23;;;22.80;58.30;;;;;;6101899;23;87189;-86
2022/07/10 03:25:13;;;;;;;1.33;1.10;;;22.80;58.50;;;;;;6102466;23;86931;-85
2022/07/10 03:27:39;;;;;;;1.20;1.10;;;22.80;58.40;;;;;;6101646;23;89104;-85
2022/07/10 03:30:05;;;;;;;2.08;1.00;;;22.80;58.40;;;;;;6076104;23;90033;-85
2022/07/10 03:32:31;;;;;;;1.52;1.10;;;22.80;58.40;;;;;;6075182;23;88449;-87
2022/07/10 03:34:57;;;;;;;1.90;1.20;;;22.90;58.50;;;;;;6102187;23;86833;-86
2022/07/10 03:37:22;;;;;;;0.90;0.90;;;22.80;58.40;;;;;;6102289;23;87104;-86
2022/07/10 03:39:48;;;;;;;1.52;1.02;;;22.80;58.40;;;;;;6075281;23;91012;-86
2022/07/10 03:42:14;;;;;;;1.20;1.10;;;22.80;58.50;;;;;;6101950;23;88415;-86
2022/07/10 03:44:40;;;;;;;1.45;1.05;;;22.80;58.30;;;;;;6102718;23;86947;-86
2022/07/10 03:47:05;;;;;;;2.03;1.00;;;22.80;58.40;;;;;;6076070;23;89362;-86
2022/07/10 03:49:42;;;;;;;1.10;1.00;;;22.80;58.40;;;;;;6100356;23;90468;-86
2022/07/10 03:52:08;;;;;;;1.30;0.98;;;22.80;58.40;;;;;;6075307;23;90297;-85
2022/07/10 03:54:34;;;;;;;1.52;1.20;;;22.80;58.40;;;;;;6100275;23;87327;-85
2022/07/10 03:59:44;;;;;;;1.80;1.48;;;22.80;58.20;;;;;;6101498;23;87199;-86
2022/07/10 04:02:10;;;;;;;1.38;0.98;;;22.80;58.30;;;;;;6099869;23;90651;-86
2022/07/10 04:04:35;;;;;;;0.98;0.88;;;22.80;58.50;;;;;;6102922;23;87806;-85
2022/07/10 04:07:01;;;;;;;1.30;0.90;;;22.80;58.50;;;;;;6075582;23;89076;-85
2022/07/10 04:09:27;;;;;;;1.23;1.10;;;22.80;58.40;;;;;;6075735;23;90535;-86
2022/07/10 04:11:52;;;;;;;2.13;1.33;;;22.80;58.40;;;;;;6075471;23;88475;-87
2022/07/10 04:14:18;;;;;;;1.25;1.05;;;22.80;58.40;;;;;;6101639;23;87212;-86
2022/07/10 04:16:44;;;;;;;1.35;1.15;;;22.80;58.50;;;;;;6100571;23;89587;-86
2022/07/10 04:19:09;;;;;;;1.23;1.10;;;22.80;58.40;;;;;;6075748;23;89753;-86
2022/07/10 04:21:44;;;;;;;1.10;1.00;;;22.80;58.50;;;;;;6102560;23;86244;-86
2022/07/10 04:24:10;;;;;;;1.58;1.00;;;22.80;58.40;;;;;;6101874;23;87174;-86
2022/07/10 04:26:35;;;;;;;1.48;1.00;;;22.80;58.40;;;;;;6102884;23;86898;-85
2022/07/10 04:29:01;;;;;;;1.15;1.00;;;22.80;58.40;;;;;;6101156;23;88732;-86
2022/07/10 04:31:27;;;;;;;1.10;1.00;;;22.80;59.10;;;;;;6075138;23;91281;-86
2022/07/10 04:33:53;;;;;;;1.38;1.00;;;22.80;58.60;;;;;;6099347;23;86922;-86
2022/07/10 04:36:18;;;;;;;1.10;1.00;;;22.80;58.50;;;;;;6101298;23;87377;-87
2022/07/10 04:38:44;;;;;;;1.20;1.10;;;22.80;58.50;;;;;;6102343;23;88379;-87
2022/07/10 04:41:09;;;;;;;1.75;1.17;;;22.80;58.50;;;;;;6075027;23;90008;-87
2022/07/10 04:43:35;;;;;;;1.30;0.90;;;22.80;58.50;;;;;;6102086;23;87261;-86
2022/07/10 04:46:00;;;;;;;1.30;1.20;;;22.80;58.60;;;;;;6102290;23;86662;-87
2022/07/10 04:48:26;;;;;;;1.10;1.00;;;22.80;58.60;;;;;;6075130;23;90536;-86
2022/07/10 04:50:52;;;;;;;1.83;1.00;;;22.80;58.60;;;;;;6074479;23;89804;-86
2022/07/10 04:53:17;;;;;;;1.20;1.10;;;22.80;58.50;;;;;;6100836;23;87996;-85
2022/07/10 04:55:43;;;;;;;1.48;1.10;;;22.80;58.50;;;;;;6074960;23;88342;-87
2022/07/10 04:58:08;;;;;;;1.55;1.10;;;22.80;58.50;;;;;;6098652;23;89124;-85
2022/07/10 05:00:34;;;;;;;1.20;1.05;;;22.80;58.40;;;;;;6100357;23;87771;-86
2022/07/10 05:03:00;;;;;;;1.20;1.00;;;22.80;58.40;;;;;;6101298;23;86773;-86
2022/07/10 05:05:25;;;;;;;1.38;1.05;;;22.80;58.50;;;;;;6075057;23;89495;-86
2022/07/10 05:07:53;;;;;;;1.23;1.13;;;22.80;58.40;;;;;;6102557;23;87398;-86
2022/07/10 05:10:27;;;;;;;1.08;0.95;;;22.80;58.50;;;;;;6075033;23;91102;-86
2022/07/10 05:12:52;;;;;;;0.95;0.90;;;22.80;58.50;;;;;;6099278;23;87396;-86
2022/07/10 05:15:18;;;;;;;1.33;1.20;;;22.80;58.50;;;;;;6075095;23;89330;-87
2022/07/10 05:17:44;;;;;;;1.40;1.10;;;22.80;58.60;;;;;;6100965;23;88903;-86
2022/07/10 05:20:10;;;;;;;1.77;1.20;;;22.80;58.90;;;;;;6101433;23;88529;-86
2022/07/10 05:22:36;;;;;;;1.15;0.90;;;22.80;58.40;;;;;;6074868;23;86928;-87
2022/07/10 05:25:01;;;;;;;1.10;1.00;;;22.80;58.40;;;;;;6100184;23;87150;-86
2022/07/10 05:27:27;;;;;;;3.38;1.10;;;22.80;58.60;;;;;;6101369;23;89428;-87
2022/07/10 05:29:53;;;;;;;1.67;1.30;;;22.80;58.40;;;;;;6074657;23;88922;-87
2022/07/10 05:32:18;;;;;;;1.70;1.00;;;22.80;58.40;;;;;;6076462;23;87279;-87
2022/07/10 05:34:44;;;;;;;2.35;1.23;;;22.90;58.50;;;;;;6077114;23;89588;-87
2022/07/10 05:37:09;;;;;;;1.52;1.00;;;22.80;58.50;;;;;;6102375;23;87773;-88
2022/07/10 05:39:35;;;;;;;2.88;1.05;;;22.80;58.80;;;;;;6102696;23;87507;-86
2022/07/10 05:42:01;;;;;;;2.53;1.23;;;22.80;59.20;;;;;;6102331;23;87992;-87
2022/07/10 05:44:26;;;;;;;2.03;1.15;;;22.80;59.50;;;;;;6102373;23;86878;-86
2022/07/10 05:46:52;;;;;;;1.52;1.27;;;22.80;59.60;;;;;;6102898;23;87849;-86
2022/07/10 05:49:18;;;;;;;1.40;1.30;;;22.80;59.60;;;;;;6076616;23;90299;-86
2022/07/10 05:51:43;;;;;;;1.45;1.17;;;22.80;59.70;;;;;;6077217;23;86885;-88
2022/07/10 05:54:09;;;;;;;1.65;1.15;;;22.80;59.90;;;;;;6101925;23;89310;-87
2022/07/10 05:56:35;;;;;;;2.70;1.38;;;22.80;59.90;;;;;;6101871;23;90012;-86
2022/07/10 05:59:01;;;;;;;2.33;1.33;;;22.80;60.60;;;;;;6103044;23;87378;-87
2022/07/10 06:01:26;;;;;;;1.13;1.02;;;22.80;60.00;;;;;;6101690;23;86849;-88
2022/07/10 06:03:52;;;;;;;2.97;1.25;;;22.80;60.00;;;;;;6102611;23;86923;-87
2022/07/10 06:06:18;;;;;;;2.42;1.20;;;22.80;59.80;;;;;;6100731;23;91495;-86
2022/07/10 06:08:44;;;;;;;1.45;0.90;;;22.80;59.70;;;;;;6076902;23;91242;-86
2022/07/10 06:11:10;;;;;;;2.10;1.40;;;22.80;59.80;;;;;;6076896;23;87194;-87
2022/07/10 06:13:36;;;;;;;1.35;1.20;;;22.80;59.90;;;;;;6102156;23;86924;-86
2022/07/10 06:16:03;;;;;;;1.83;1.30;;;22.80;59.90;;;;;;6075745;23;90247;-85
2022/07/10 06:18:30;;;;;;;4.10;1.00;;;22.80;59.80;;;;;;6102594;23;86789;-86
2022/07/10 06:20:55;;;;;;;1.30;1.20;;;22.80;59.60;;;;;;6104029;23;87542;-87
2022/07/10 06:23:21;;;;;;;1.85;1.20;;;22.80;59.60;;;;;;6076897;23;89382;-86
2022/07/10 06:25:49;;;;;;;1.65;1.20;;;22.80;59.60;;;;;;6101754;23;88060;-87
2022/07/10 06:28:15;;;;;;;4.22;1.80;;;22.80;59.50;;;;;;6075385;23;90249;-86
2022/07/10 06:30:41;;;;;;;1.00;0.90;;;22.80;59.40;;;;;;6102165;23;88112;-86
2022/07/10 06:33:06;;;;;;;1.45;1.35;;;22.80;59.40;;;;;;6102819;23;87320;-87
2022/07/10 06:35:32;;;;;;;1.75;1.27;;;22.80;60.00;;;;;;6100433;23;90088;-86
2022/07/10 06:37:57;;;;;;;1.38;1.10;;;22.80;59.40;;;;;;6102086;23;87554;-86
2022/07/10 06:40:24;;;;;;;2.70;1.55;;;22.80;59.30;;;;;;6103384;23;86820;-87
2022/07/10 06:42:52;;;;;;;4.85;1.70;;;22.80;57.70;;;;;;6101418;23;87292;-85
2022/07/10 06:45:21;;;;;;;7.07;1.90;;;22.80;56.40;;;;;;6075545;23;90143;-86
2022/07/10 06:47:55;;;;;;;8.10;2.10;;;22.80;54.90;;;;;;6076306;23;89974;-86
2022/07/10 06:50:22;;;;;;;48.90;8.20;;;22.80;54.60;;;;;;6105085;23;87971;-88
2022/07/10 06:52:48;;;;;;;135.70;21.83;;;22.80;54.60;;;;;;6074361;23;89490;-86
2022/07/10 06:55:14;;;;;;;79.78;15.65;;;22.70;53.70;;;;;;6101069;23;89113;-86
2022/07/10 06:57:40;;;;;;;48.97;9.82;;;22.70;53.60;;;;;;6074588;23;90697;-85
2022/07/10 07:00:07;;;;;;;49.45;8.77;;;22.70;53.30;;;;;;6100068;23;86956;-86
2022/07/10 07:02:33;;;;;;;36.92;6.50;;;22.70;53.30;;;;;;6075016;23;89140;-87
2022/07/10 07:04:58;;;;;;;18.33;4.40;;;22.70;54.20;;;;;;6075009;23;90456;-87
2022/07/10 07:07:24;;;;;;;20.35;4.22;;;22.80;53.00;;;;;;6102793;23;87469;-86
2022/07/10 07:09:50;;;;;;;15.80;3.40;;;22.80;52.60;;;;;;6076280;23;87288;-86
2022/07/10 07:12:17;;;;;;;11.73;2.95;;;22.70;52.40;;;;;;6077790;23;89337;-88
2022/07/10 07:14:43;;;;;;;17.45;2.90;;;22.70;52.40;;;;;;6076349;23;90356;-87
2022/07/10 07:17:11;;;;;;;11.40;2.55;;;22.70;52.80;;;;;;6101853;23;87261;-86
2022/07/10 07:25:09;;;;;;;15.57;2.78;;;22.80;54.70;;;;;;6102421;23;88369;-85
2022/07/10 07:27:36;;;;;;;13.25;2.88;;;22.80;54.10;;;;;;6075336;23;90344;-87
2022/07/10 07:30:10;;;;;;;11.43;2.42;;;22.80;54.20;;;;;;6074656;23;87388;-87
2022/07/10 07:32:37;;;;;;;9.88;2.80;;;22.80;54.20;;;;;;6100805;23;88594;-88
2022/07/10 07:35:03;;;;;;;12.48;2.78;;;22.80;54.00;;;;;;6075091;23;88903;-87
2022/07/10 07:37:43;;;;;;;10.48;2.55;;;22.80;54.30;;;;;;6078100;23;88132;-88
2022/07/10 07:40:10;;;;;;;;;;;22.80;53.80;;;;;;6074664;23;87278;-85
2022/07/10 07:42:36;;;;;;;14.32;3.38;;;22.80;54.60;;;;;;6078814;23;89679;-86
2022/07/10 07:45:04;;;;;;;7.15;2.00;;;22.80;54.50;;;;;;6102094;23;90965;-86
2022/07/10 07:47:44;;;;;;;7.70;2.28;;;22.80;54.60;;;;;;6102431;23;88850;-87
2022/07/10 07:50:12;;;;;;;9.32;2.08;;;22.80;54.30;;;;;;5975969;23;92624;-87
2022/07/10 07:52:38;;;;;;;7.70;2.10;;;22.80;54.40;;;;;;6100284;23;87135;-85
2022/07/10 07:55:04;;;;;;;7.47;2.20;;;22.80;54.10;;;;;;6098175;23;90800;-86
2022/07/10 07:57:29;;;;;;;8.38;2.55;;;22.80;55.10;;;;;;6074146;23;91147;-87
2022/07/10 08:00:04;;;;;;;7.60;2.15;;;22.80;54.40;;;;;;6100042;23;87306;-87
2022/07/10 08:02:30;;;;;;;9.52;1.98;;;22.80;55.30;;;;;;6076368;23;89249;-84
2022/07/10 08:04:55;;;;;;;7.80;1.95;;;22.80;55.30;;;;;;6074260;23;90404;-86
2022/07/10 08:07:22;;;;;;;13.73;2.72;;;22.80;55.40;;;;;;6096314;23;90175;-88
2022/07/10 08:09:48;;;;;;;10.52;2.47;;;22.80;55.10;;;;;;6074802;23;87841;-86
2022/07/10 08:12:16;;;;;;;6.20;1.83;;;22.80;55.20;;;;;;6074001;23;89675;-89
2022/07/10 08:14:42;;;;;;;7.63;2.15;;;22.80;55.20;;;;;;6099214;23;87912;-87
2022/07/10 08:17:08;;;;;;;9.57;2.22;;;22.80;55.00;;;;;;6100274;23;86760;-86
2022/07/10 08:19:37;;;;;;;7.43;1.88;;;22.80;54.90;;;;;;6074763;23;87240;-86
2022/07/10 08:22:15;;;;;;;5.78;1.85;;;22.80;54.50;;;;;;6099999;23;88884;-88
2022/07/10 08:24:40;;;;;;;7.65;1.88;;;22.80;53.80;;;;;;6071907;23;88766;-86
2022/07/10 08:27:07;;;;;;;11.85;1.80;;;22.80;53.50;;;;;;6099568;23;87403;-82
2022/07/10 08:29:33;;;;;;;8.73;1.95;;;22.80;53.90;;;;;;6073511;23;87454;-82
2022/07/10 08:32:06;;;;;;;6.43;1.60;;;22.80;52.70;;;;;;6099839;23;87335;-85
2022/07/10 08:34:33;;;;;;;6.80;2.20;;;22.80;52.30;;;;;;6099320;23;88608;-82
2022/07/10 08:36:58;;;;;;;5.32;1.60;;;22.80;52.40;;;;;;6099861;23;88678;-84
2022/07/10 08:39:24;;;;;;;6.40;1.60;;;22.80;52.10;;;;;;6100881;23;87328;-86
2022/07/10 08:41:50;;;;;;;3.70;1.30;;;22.80;52.50;;;;;;6073700;23;89207;-87
2022/07/10 08:44:17;;;;;;;7.85;1.90;;;22.80;52.40;;;;;;6100923;23;87666;-86
2022/07/10 08:46:44;;;;;;;3.20;1.45;;;22.80;52.40;;;;;;6099811;23;86943;-82
2022/07/10 08:49:11;;;;;;;5.43;1.65;;;22.80;53.20;;;;;;6101504;23;86824;-83
2022/07/10 08:51:55;;;;;;;7.18;2.13;;;22.80;52.50;;;;;;6101366;23;87437;-87
2022/07/10 08:54:22;;;;;;;5.43;1.70;;;22.80;52.60;;;;;;6101850;23;88087;-85
2022/07/10 08:56:48;;;;;;;6.45;2.05;;;22.80;52.70;;;;;;6101016;23;88164;-85
2022/07/10 08:59:26;;;;;;;9.88;2.17;;;22.80;53.40;;;;;;6101312;23;87839;-85
2022/07/10 09:01:53;;;;;;;6.95;1.83;;;22.80;52.60;;;;;;6075960;23;88409;-87
2022/07/10 09:04:20;;;;;;;5.93;1.80;;;22.80;51.90;;;;;;6101343;23;87529;-89
2022/07/10 09:06:46;;;;;;;10.43;1.80;;;22.80;52.40;;;;;;6097755;23;88286;-88
2022/07/10 09:09:12;;;;;;;4.57;1.60;;;22.80;52.30;;;;;;6100949;23;86904;-87
2022/07/10 09:11:42;;;;;;;5.47;1.42;;;22.80;52.50;;;;;;6100025;23;86856;-89
2022/07/10 09:14:11;;;;;;;4.43;1.60;;;22.80;52.80;;;;;;6101771;23;87807;-87
2022/07/10 09:16:43;;;;;;;5.82;1.75;;;22.70;52.50;;;;;;6102860;23;86408;-89
2022/07/10 09:19:17;;;;;;;16.50;4.65;;;22.70;52.40;;;;;;6101029;23;86882;-88
2022/07/10 09:21:51;;;;;;;17.40;4.57;;;22.80;51.70;;;;;;6099545;23;89012;-87
2022/07/10 09:24:20;;;;;;;14.45;4.05;;;22.70;51.50;;;;;;6102466;23;88958;-89
2022/07/10 09:27:03;;;;;;;12.30;3.17;;;22.70;51.40;;;;;;6102400;23;88132;-85
2022/07/10 09:29:29;;;;;;;10.57;3.08;;;22.70;51.70;;;;;;6101403;23;87119;-85
2022/07/10 09:31:56;;;;;;;12.10;2.92;;;22.70;51.80;;;;;;6101522;23;87259;-88
2022/07/10 09:34:47;;;;;;;13.55;3.00;;;22.70;52.00;;;;;;6101372;23;86782;-88
2022/07/10 09:37:29;;;;;;;8.40;2.58;;;22.70;52.30;;;;;;6082591;23;89609;-87
2022/07/10 09:40:03;;;;;;;21.17;4.85;;;22.70;52.20;;;;;;6101269;23;87187;-87
2022/07/10 09:42:34;;;;;;;15.50;3.53;;;22.70;52.80;;;;;;6102664;23;86785;-90
2022/07/10 09:45:12;;;;;;;17.08;4.70;;;22.80;53.40;;;;;;6074627;23;90494;-87
2022/07/10 09:47:39;;;;;;;22.98;6.75;;;22.80;53.10;;;;;;6102612;23;87485;-88
2022/07/10 09:50:20;;;;;;;44.70;14.13;;;22.80;53.40;;;;;;6101286;23;88021;-89
2022/07/10 09:52:46;;;;;;;23.85;8.82;;;22.80;53.00;;;;;;6103063;23;86899;-87
2022/07/10 09:55:14;;;;;;;22.42;6.68;;;22.80;53.00;;;;;;6103692;23;87599;-91
2022/07/10 09:57:43;;;;;;;20.17;5.75;;;22.70;53.00;;;;;;6076476;23;90726;-88
2022/07/10 10:00:09;;;;;;;17.30;4.65;;;22.70;53.00;;;;;;6102744;23;87386;-86
2022/07/10 10:02:36;;;;;;;12.40;3.65;;;22.70;53.10;;;;;;6102669;23;88692;-88
2022/07/10 10:05:02;;;;;;;8.48;2.75;;;22.70;52.90;;;;;;6102833;23;87807;-89
2022/07/10 10:07:28;;;;;;;10.07;3.00;;;22.80;52.90;;;;;;6103242;23;89404;-90
2022/07/10 10:09:57;;;;;;;10.77;2.65;;;22.70;53.60;;;;;;6104017;23;86734;-91
2022/07/10 10:12:45;;;;;;;8.35;2.42;;;22.70;52.70;;;;;;6076687;23;89425;-91
2022/07/10 10:15:11;;;;;;;4.88;2.10;;;22.70;52.40;;;;;;6101774;23;88491;-87
2022/07/10 10:17:40;;;;;;;4.57;2.00;;;22.70;52.50;;;;;;6102346;23;91239;-89
2022/07/10 10:22:55;;;;;;;9.70;2.10;;;22.80;52.60;;;;;;6103576;23;87299;-86
2022/07/10 10:25:22;;;;;;;;;;;22.70;52.70;;;;;;6077680;23;90476;-87
2022/07/10 10:27:48;;;;;;;4.97;1.70;;;22.70;52.70;;;;;;6078224;23;88328;-85
2022/07/10 10:30:14;;;;;;;7.25;2.22;;;22.70;52.60;;;;;;6076796;23;87008;-86
2022/07/10 10:32:40;;;;;;;6.00;1.90;;;22.70;53.10;;;;;;6103937;23;86205;-87
2022/07/10 10:35:09;;;;;;;10.25;2.72;;;22.70;52.70;;;;;;6103044;23;87037;-84
2022/07/10 10:37:44;;;;;;;8.40;2.15;;;22.70;53.60;;;;;;6103707;23;87737;-86
2022/07/10 10:40:29;;;;;;;4.78;1.73;;;22.80;53.70;;;;;;6100688;23;88150;-88
2022/07/10 10:42:55;;;;;;;5.25;1.50;;;22.80;52.50;;;;;;6076581;23;89059;-86
2022/07/10 10:45:31;;;;;;;7.38;2.10;;;22.70;52.80;;;;;;6076265;23;89798;-89
2022/07/10 10:48:17;;;;;;;6.82;1.92;;;22.70;53.00;;;;;;6103035;23;87335;-86
2022/07/10 10:50:50;;;;;;;7.55;2.05;;;22.70;53.70;;;;;;6103760;23;87238;-88
2022/07/10 10:53:26;;;;;;;5.75;1.95;;;22.80;53.70;;;;;;6102987;23;86834;-85
2022/07/10 10:56:04;;;;;;;6.47;2.22;;;22.70;53.80;;;;;;6101950;23;87782;-88
2022/07/10 10:58:41;;;;;;;5.15;1.88;;;22.80;53.80;;;;;;6101858;23;90675;-85
2022/07/10 11:01:25;;;;;;;6.32;1.65;;;22.80;53.50;;;;;;6102764;23;86826;-87
2022/07/10 11:04:09;;;;;;;5.30;1.73;;;22.80;53.50;;;;;;6103235;23;87193;-86
2022/07/10 11:06:52;;;;;;;2.83;1.35;;;22.80;53.80;;;;;;6102063;23;88590;-86
2022/07/10 11:09:24;;;;;;;12.90;2.05;;;22.80;53.80;;;;;;6102618;23;87417;-86
2022/07/10 11:12:02;;;;;;;8.32;1.90;;;22.80;53.80;;;;;;6099082;23;86952;-86
2022/07/10 11:14:30;;;;;;;8.82;2.20;;;22.80;53.90;;;;;;6101094;23;86981;-85
2022/07/10 11:16:56;;;;;;;5.90;1.75;;;22.80;54.20;;;;;;6101460;23;87888;-86
2022/07/10 11:19:24;;;;;;;8.40;1.95;;;22.80;54.50;;;;;;6102179;23;87939;-85
2022/07/10 11:21:59;;;;;;;9.23;2.05;;;22.80;55.20;;;;;;6075919;23;86960;-85
2022/07/10 11:24:37;;;;;;;8.98;1.92;;;22.80;54.60;;;;;;6075382;23;87544;-87
2022/07/10 11:27:16;;;;;;;6.10;1.80;;;22.80;54.40;;;;;;6102075;23;86883;-85
2022/07/10 11:29:56;;;;;;;5.18;1.60;;;22.80;54.70;;;;;;6102007;23;86879;-85
2022/07/10 11:32:21;;;;;;;5.85;1.58;;;22.80;54.30;;;;;;6074105;23;88010;-86
2022/07/10 11:34:48;;;;;;;5.88;1.85;;;22.80;54.60;;;;;;6100187;23;89289;-87
2022/07/10 11:37:15;;;;;;;6.30;1.60;;;22.80;54.50;;;;;;6099643;23;88031;-85
2022/07/10 11:39:41;;;;;;;7.82;1.95;;;22.80;54.40;;;;;;6072394;23;90667;-86
2022/07/10 11:42:07;;;;;;;12.18;2.47;;;22.80;54.40;;;;;;6101235;23;86818;-83
2022/07/10 11:44:32;;;;;;;11.15;2.63;;;22.80;54.40;;;;;;6074567;23;88987;-84
2022/07/10 11:46:59;;;;;;;10.07;2.65;;;22.80;54.40;;;;;;6101641;23;87770;-85
2022/07/10 11:49:25;;;;;;;12.00;2.85;;;22.80;54.30;;;;;;6101619;23;87403;-85
2022/07/10 11:51:51;;;;;;;14.00;4.32;;;22.80;54.30;;;;;;6074715;23;87171;-85
2022/07/10 11:54:18;;;;;;;17.08;4.72;;;22.80;54.40;;;;;;6075014;23;89755;-84
2022/07/10 11:56:52;;;;;;;20.52;4.53;;;22.80;54.20;;;;;;6100976;23;88748;-87
2022/07/10 11:59:22;;;;;;;27.00;5.28;;;22.80;54.20;;;;;;6101956;23;88616;-86
2022/07/10 12:01:50;;;;;;;30.15;5.43;;;22.80;54.30;;;;;;6075151;23;87075;-86
2022/07/10 12:04:19;;;;;;;21.55;5.80;;;22.80;54.80;;;;;;6101671;23;86877;-85
2022/07/10 12:06:46;;;;;;;28.50;7.28;;;22.80;54.60;;;;;;6101620;23;87439;-85
2022/07/10 12:09:16;;;;;;;24.10;6.00;;;22.80;54.90;;;;;;6101935;23;87477;-85
2022/07/10 12:11:43;;;;;;;23.98;5.82;;;22.80;54.80;;;;;;6102538;23;86848;-86
2022/07/10 12:14:19;;;;;;;23.90;6.70;;;22.80;55.00;;;;;;6103011;23;86742;-86
2022/07/10 12:16:51;;;;;;;25.02;6.93;;;22.80;54.80;;;;;;6076451;23;89676;-85
2022/07/10 12:19:27;;;;;;;21.85;5.80;;;22.80;55.00;;;;;;6102414;23;87597;-86
2022/07/10 12:21:53;;;;;;;25.58;6.18;;;22.80;55.10;;;;;;6101497;23;88250;-85
2022/07/10 12:24:23;;;;;;;19.33;5.43;;;22.80;54.80;;;;;;6102336;23;86854;-86
2022/07/10 12:26:49;;;;;;;27.02;6.57;;;22.80;54.90;;;;;;6102742;23;87945;-85
2022/07/10 12:29:18;;;;;;;24.85;6.22;;;22.80;54.90;;;;;;6101747;23;87948;-85
2022/07/10 12:31:45;;;;;;;20.08;5.32;;;22.80;55.10;;;;;;6100621;23;87017;-85
2022/07/10 12:34:11;;;;;;;22.50;5.93;;;22.80;55.10;;;;;;6101964;23;86991;-86
2022/07/10 12:36:53;;;;;;;18.27;5.50;;;22.80;55.80;;;;;;6101142;23;87980;-83
2022/07/10 12:39:21;;;;;;;18.02;5.30;;;22.80;55.00;;;;;;6100795;23;90384;-85
2022/07/10 12:42:14;;;;;;;24.85;5.93;;;22.80;54.80;;;;;;6074890;23;87525;-87
2022/07/10 12:44:42;;;;;;;17.70;4.70;;;22.80;54.80;;;;;;6095068;23;86893;-85
2022/07/10 12:47:09;;;;;;;16.75;5.10;;;22.80;54.90;;;;;;6075317;23;91098;-86
2022/07/10 12:49:54;;;;;;;20.15;5.05;;;22.80;54.80;;;;;;6098924;23;89770;-84
2022/07/10 12:52:27;;;;;;;20.83;6.22;;;22.80;54.80;;;;;;6102552;23;86963;-85
2022/07/10 12:55:21;;;;;;;18.58;5.28;;;22.80;54.90;;;;;;6101820;23;86860;-86
2022/07/10 12:58:04;;;;;;;18.00;5.32;;;22.80;54.90;;;;;;6102152;23;87716;-85
2022/07/10 13:00:34;;;;;;;16.45;5.32;;;22.80;54.90;;;;;;6101414;23;86881;-85